sensor_id;sensor_type;location;lat;lon;timestamp;pressure;altitude;pressure_sealevel;temperature;humidity
63715;BME280;49858;48.956;9.076;2022-12-07T00:01:06;98882.63;;;4.20;100.00
63715;BME280;49858;48.956;9.076;2022-12-07T00:03:35;98873.25;;;3.90;100.00
63715;BME280;49858;48.956;9.076;2022-12-07T00:06:04;98879.81;;;3.53;100.00
63715;BME280;49858;48.956;9.076;2022-12-07T00:08:34;98882.72;;;3.43;100.00
63715;BME280;49858;48.956;9.076;2022-12-07T00:11:02;98880.28;;;3.69;100.00
63715;BME280;49858;48.956;9.076;2022-12-07T00:13:31;98879.75;;;3.30;100.00
63715;BME280;49858;48.956;9.076;2022-12-07T00:16:00;98883.38;;;3.26;100.00
63715;BME280;49858;48.956;9.076;2022-12-07T00:18:30;98878.03;;;3.35;100.00
63715;BME280;49858;48.956;9.076;2022-12-07T00:21:01;98879.91;;;3.48;100.00
63715;BME280;49858;48.956;9.076;2022-12-07T00:23:29;98872.53;;;3.62;100.00
63715;BME280;49858;48.956;9.076;2022-12-07T00:26:03;98872.16;;;3.55;100.00
63715;BME280;49858;48.956;9.076;2022-12-07T00:28:31;98874.09;;;3.41;100.00
63715;BME280;49858;48.956;9.076;2022-12-07T00:31:01;98873.03;;;3.64;100.00
63715;BME280;49858;48.956;9.076;2022-12-07T00:33:31;98865.00;;;3.95;100.00
63715;BME280;49858;48.956;9.076;2022-12-07T00:35:59;98865.41;;;3.89;100.00
63715;BME280;49858;48.956;9.076;2022-12-07T00:38:28;98861.56;;;3.67;100.00
63715;BME280;49858;48.956;9.076;2022-12-07T00:40:57;98859.59;;;4.04;100.00
63715;BME280;49858;48.956;9.076;2022-12-07T00:43:26;98847.00;;;4.39;100.00
63715;BME280;49858;48.956;9.076;2022-12-07T00:45:55;98852.00;;;4.46;100.00
63715;BME280;49858;48.956;9.076;2022-12-07T00:48:23;98853.44;;;4.74;100.00
63715;BME280;49858;48.956;9.076;2022-12-07T00:50:52;98854.41;;;4.78;100.00
63715;BME280;49858;48.956;9.076;2022-12-07T00:53:20;98852.25;;;4.98;100.00
63715;BME280;49858;48.956;9.076;2022-12-07T00:55:48;98849.03;;;4.96;100.00
63715;BME280;49858;48.956;9.076;2022-12-07T00:58:16;98852.81;;;4.77;100.00
63715;BME280;49858;48.956;9.076;2022-12-07T01:00:44;98848.22;;;4.24;100.00
63715;BME280;49858;48.956;9.076;2022-12-07T01:03:13;98862.44;;;4.21;100.00
63715;BME280;49858;48.956;9.076;2022-12-07T01:05:49;98858.47;;;4.27;100.00
63715;BME280;49858;48.956;9.076;2022-12-07T01:08:19;98857.47;;;4.23;100.00
63715;BME280;49858;48.956;9.076;2022-12-07T01:10:47;98861.34;;;3.64;100.00
63715;BME280;49858;48.956;9.076;2022-12-07T01:13:15;98865.47;;;3.61;100.00
63715;BME280;49858;48.956;9.076;2022-12-07T01:15:44;98861.03;;;4.55;100.00
63715;BME280;49858;48.956;9.076;2022-12-07T01:18:12;98848.69;;;4.26;100.00
63715;BME280;49858;48.956;9.076;2022-12-07T01:20:40;98863.41;;;4.03;100.00
63715;BME280;49858;48.956;9.076;2022-12-07T01:23:07;98856.63;;;4.14;100.00
63715;BME280;49858;48.956;9.076;2022-12-07T01:25:36;98856.06;;;4.03;100.00
63715;BME280;49858;48.956;9.076;2022-12-07T01:28:04;98863.31;;;3.36;100.00
63715;BME280;49858;48.956;9.076;2022-12-07T01:30:32;98872.16;;;3.55;100.00
63715;BME280;49858;48.956;9.076;2022-12-07T01:33:00;98868.63;;;4.13;100.00
63715;BME280;49858;48.956;9.076;2022-12-07T01:35:28;98867.56;;;3.78;100.00
63715;BME280;49858;48.956;9.076;2022-12-07T01:37:55;98876.03;;;3.26;100.00
63715;BME280;49858;48.956;9.076;2022-12-07T01:40:23;98883.47;;;3.35;100.00
63715;BME280;49858;48.956;9.076;2022-12-07T01:42:52;98885.09;;;3.08;100.00
63715;BME280;49858;48.956;9.076;2022-12-07T01:45:44;98886.22;;;3.07;100.00
63715;BME280;49858;48.956;9.076;2022-12-07T01:48:15;98892.34;;;2.99;100.00
63715;BME280;49858;48.956;9.076;2022-12-07T01:50:45;98887.91;;;3.03;100.00
63715;BME280;49858;48.956;9.076;2022-12-07T01:53:16;98884.78;;;2.96;100.00
63715;BME280;49858;48.956;9.076;2022-12-07T01:55:47;98881.66;;;2.89;100.00
63715;BME280;49858;48.956;9.076;2022-12-07T01:58:18;98885.06;;;2.80;100.00
63715;BME280;49858;48.956;9.076;2022-12-07T02:00:47;98886.50;;;3.05;100.00
63715;BME280;49858;48.956;9.076;2022-12-07T02:03:18;98884.88;;;3.04;100.00
63715;BME280;49858;48.956;9.076;2022-12-07T02:05:48;98883.28;;;3.03;100.00
63715;BME280;49858;48.956;9.076;2022-12-07T02:08:17;98886.19;;;2.79;100.00
63715;BME280;49858;48.956;9.076;2022-12-07T02:10:45;98883.78;;;2.78;100.00
63715;BME280;49858;48.956;9.076;2022-12-07T02:13:15;98873.81;;;2.87;100.00
63715;BME280;49858;48.956;9.076;2022-12-07T02:15:56;98882.88;;;3.10;100.00
63715;BME280;49858;48.956;9.076;2022-12-07T02:18:40;98882.47;;;3.03;100.00
63715;BME280;49858;48.956;9.076;2022-12-07T02:21:15;98884.28;;;3.07;100.00
63715;BME280;49858;48.956;9.076;2022-12-07T02:24:03;98882.25;;;2.86;100.00
63715;BME280;49858;48.956;9.076;2022-12-07T02:29:46;98859.84;;;2.94;100.00
63715;BME280;49858;48.956;9.076;2022-12-07T02:32:18;98864.66;;;2.97;100.00
63715;BME280;49858;48.956;9.076;2022-12-07T02:34:50;98864.03;;;2.86;100.00
63715;BME280;49858;48.956;9.076;2022-12-07T02:37:29;98869.00;;;2.98;100.00
63715;BME280;49858;48.956;9.076;2022-12-07T02:40:05;98855.69;;;3.10;100.00
63715;BME280;49858;48.956;9.076;2022-12-07T02:42:38;98865.34;;;2.75;100.00
63715;BME280;49858;48.956;9.076;2022-12-07T02:45:10;98868.75;;;2.53;100.00
63715;BME280;49858;48.956;9.076;2022-12-07T02:47:40;98866.63;;;2.50;100.00
63715;BME280;49858;48.956;9.076;2022-12-07T02:50:09;98867.81;;;2.44;100.00
63715;BME280;49858;48.956;9.076;2022-12-07T02:52:37;98860.47;;;2.44;100.00
63715;BME280;49858;48.956;9.076;2022-12-07T02:55:06;98856.91;;;2.76;100.00
63715;BME280;49858;48.956;9.076;2022-12-07T02:57:49;98856.75;;;2.54;100.00
63715;BME280;49858;48.956;9.076;2022-12-07T03:00:21;98859.41;;;3.00;100.00
63715;BME280;49858;48.956;9.076;2022-12-07T03:02:53;98860.09;;;2.51;100.00
63715;BME280;49858;48.956;9.076;2022-12-07T03:05:43;98860.91;;;2.51;100.00
63715;BME280;49858;48.956;9.076;2022-12-07T03:08:21;98851.53;;;2.58;100.00
63715;BME280;49858;48.956;9.076;2022-12-07T03:10:55;98848.25;;;2.74;100.00
63715;BME280;49858;48.956;9.076;2022-12-07T03:13:28;98844.03;;;2.68;100.00
63715;BME280;49858;48.956;9.076;2022-12-07T03:16:02;98849.47;;;2.68;100.00
63715;BME280;49858;48.956;9.076;2022-12-07T03:18:38;98856.84;;;2.49;100.00
63715;BME280;49858;48.956;9.076;2022-12-07T03:21:10;98854.97;;;2.63;100.00
63715;BME280;49858;48.956;9.076;2022-12-07T03:23:41;98842.81;;;2.74;100.00
63715;BME280;49858;48.956;9.076;2022-12-07T03:26:13;98841.59;;;2.80;100.00
63715;BME280;49858;48.956;9.076;2022-12-07T03:28:45;98841.72;;;2.75;100.00
63715;BME280;49858;48.956;9.076;2022-12-07T03:31:18;98842.53;;;2.90;100.00
63715;BME280;49858;48.956;9.076;2022-12-07T03:33:53;98831.53;;;3.08;100.00
63715;BME280;49858;48.956;9.076;2022-12-07T03:36:29;98837.97;;;2.71;100.00
63715;BME280;49858;48.956;9.076;2022-12-07T03:39:01;98835.56;;;2.70;100.00
63715;BME280;49858;48.956;9.076;2022-12-07T03:41:32;98834.25;;;2.95;100.00
63715;BME280;49858;48.956;9.076;2022-12-07T03:44:07;98829.22;;;3.16;100.00
63715;BME280;49858;48.956;9.076;2022-12-07T03:46:42;98825.69;;;3.15;100.00
63715;BME280;49858;48.956;9.076;2022-12-07T03:49:16;98824.50;;;3.07;100.00
63715;BME280;49858;48.956;9.076;2022-12-07T03:51:51;98804.06;;;3.82;100.00
63715;BME280;49858;48.956;9.076;2022-12-07T03:54:24;98789.25;;;3.97;100.00
63715;BME280;49858;48.956;9.076;2022-12-07T03:56:55;98796.84;;;3.42;100.00
63715;BME280;49858;48.956;9.076;2022-12-07T03:59:26;98787.97;;;3.50;100.00
63715;BME280;49858;48.956;9.076;2022-12-07T04:01:57;98788.25;;;3.12;100.00
63715;BME280;49858;48.956;9.076;2022-12-07T04:04:28;98797.44;;;2.89;100.00
63715;BME280;49858;48.956;9.076;2022-12-07T04:06:56;98795.28;;;3.63;100.00
63715;BME280;49858;48.956;9.076;2022-12-07T04:09:24;98789.28;;;3.02;100.00
63715;BME280;49858;48.956;9.076;2022-12-07T04:11:52;98799.63;;;3.50;100.00
63715;BME280;49858;48.956;9.076;2022-12-07T04:14:20;98789.34;;;4.46;100.00
63715;BME280;49858;48.956;9.076;2022-12-07T04:16:49;98776.28;;;4.65;100.00
63715;BME280;49858;48.956;9.076;2022-12-07T04:19:21;98775.91;;;4.98;100.00
63715;BME280;49858;48.956;9.076;2022-12-07T04:21:50;98781.41;;;5.15;100.00
63715;BME280;49858;48.956;9.076;2022-12-07T04:24:18;98774.81;;;5.07;100.00
63715;BME280;49858;48.956;9.076;2022-12-07T04:26:46;98777.94;;;4.66;100.00
63715;BME280;49858;48.956;9.076;2022-12-07T04:29:15;98783.28;;;4.49;100.00
63715;BME280;49858;48.956;9.076;2022-12-07T04:31:43;98786.97;;;4.44;100.00
63715;BME280;49858;48.956;9.076;2022-12-07T04:34:11;98794.94;;;4.09;100.00
63715;BME280;49858;48.956;9.076;2022-12-07T04:36:41;98786.84;;;3.73;100.00
63715;BME280;49858;48.956;9.076;2022-12-07T04:39:13;98791.00;;;3.48;100.00
63715;BME280;49858;48.956;9.076;2022-12-07T04:41:44;98798.47;;;3.88;100.00
63715;BME280;49858;48.956;9.076;2022-12-07T04:44:13;98793.28;;;3.77;100.00
63715;BME280;49858;48.956;9.076;2022-12-07T04:46:42;98797.97;;;3.63;100.00
63715;BME280;49858;48.956;9.076;2022-12-07T04:49:10;98792.72;;;3.67;100.00
63715;BME280;49858;48.956;9.076;2022-12-07T04:51:38;98791.66;;;3.54;100.00
63715;BME280;49858;48.956;9.076;2022-12-07T04:54:08;98786.13;;;3.09;100.00
63715;BME280;49858;48.956;9.076;2022-12-07T04:56:36;98788.59;;;2.83;100.00
63715;BME280;49858;48.956;9.076;2022-12-07T04:59:04;98796.31;;;2.48;100.00
63715;BME280;49858;48.956;9.076;2022-12-07T05:01:32;98802.34;;;2.87;100.00
63715;BME280;49858;48.956;9.076;2022-12-07T05:04:00;98807.31;;;2.85;100.00
63715;BME280;49858;48.956;9.076;2022-12-07T05:06:28;98811.84;;;2.75;100.00
63715;BME280;49858;48.956;9.076;2022-12-07T05:08:56;98808.41;;;3.11;100.00
63715;BME280;49858;48.956;9.076;2022-12-07T05:11:25;98808.97;;;3.22;100.00
63715;BME280;49858;48.956;9.076;2022-12-07T05:14:11;98802.19;;;2.83;100.00
63715;BME280;49858;48.956;9.076;2022-12-07T05:16:40;98800.84;;;2.94;100.00
63715;BME280;49858;48.956;9.076;2022-12-07T05:19:08;98806.59;;;2.65;100.00
63715;BME280;49858;48.956;9.076;2022-12-07T05:21:37;98804.16;;;2.77;100.00
63715;BME280;49858;48.956;9.076;2022-12-07T05:24:06;98810.03;;;2.85;100.00
63715;BME280;49858;48.956;9.076;2022-12-07T05:26:36;98802.34;;;3.00;100.00
63715;BME280;49858;48.956;9.076;2022-12-07T05:29:03;98796.19;;;3.22;100.00
63715;BME280;49858;48.956;9.076;2022-12-07T05:31:32;98796.75;;;3.69;100.00
63715;BME280;49858;48.956;9.076;2022-12-07T05:34:00;98794.16;;;3.64;100.00
63715;BME280;49858;48.956;9.076;2022-12-07T05:36:28;98784.38;;;3.27;100.00
63715;BME280;49858;48.956;9.076;2022-12-07T05:38:58;98789.28;;;2.89;100.00
63715;BME280;49858;48.956;9.076;2022-12-07T05:41:26;98792.91;;;2.98;100.00
63715;BME280;49858;48.956;9.076;2022-12-07T05:44:13;98797.31;;;3.21;100.00
63715;BME280;49858;48.956;9.076;2022-12-07T05:46:41;98795.22;;;2.91;100.00
63715;BME280;49858;48.956;9.076;2022-12-07T05:49:09;98802.97;;;2.84;100.00
63715;BME280;49858;48.956;9.076;2022-12-07T05:51:36;98797.94;;;2.63;100.00
63715;BME280;49858;48.956;9.076;2022-12-07T05:54:04;98798.66;;;2.55;100.00
63715;BME280;49858;48.956;9.076;2022-12-07T05:56:32;98795.31;;;2.58;100.00
63715;BME280;49858;48.956;9.076;2022-12-07T05:59:00;98800.13;;;2.34;100.00
63715;BME280;49858;48.956;9.076;2022-12-07T06:01:46;98804.06;;;2.27;100.00
63715;BME280;49858;48.956;9.076;2022-12-07T06:04:14;98794.41;;;2.35;100.00
63715;BME280;49858;48.956;9.076;2022-12-07T06:06:42;98796.13;;;2.31;100.00
63715;BME280;49858;48.956;9.076;2022-12-07T06:09:10;98799.13;;;2.43;100.00
63715;BME280;49858;48.956;9.076;2022-12-07T06:11:39;98798.13;;;2.39;100.00
63715;BME280;49858;48.956;9.076;2022-12-07T06:14:25;98798.41;;;2.24;100.00
63715;BME280;49858;48.956;9.076;2022-12-07T06:16:54;98803.13;;;2.18;100.00
63715;BME280;49858;48.956;9.076;2022-12-07T06:19:22;98801.16;;;2.38;100.00
63715;BME280;49858;48.956;9.076;2022-12-07T06:21:50;98804.81;;;2.14;100.00
63715;BME280;49858;48.956;9.076;2022-12-07T06:24:18;98796.41;;;2.29;100.00
63715;BME280;49858;48.956;9.076;2022-12-07T06:26:46;98796.97;;;2.59;100.00
63715;BME280;49858;48.956;9.076;2022-12-07T06:29:14;98799.16;;;2.57;100.00
63715;BME280;49858;48.956;9.076;2022-12-07T06:31:42;98800.47;;;2.60;100.00
63715;BME280;49858;48.956;9.076;2022-12-07T06:34:12;98797.53;;;2.97;100.00
63715;BME280;49858;48.956;9.076;2022-12-07T06:36:41;98798.69;;;3.19;100.00
63715;BME280;49858;48.956;9.076;2022-12-07T06:39:09;98802.28;;;3.42;100.00
63715;BME280;49858;48.956;9.076;2022-12-07T06:41:38;98807.50;;;3.97;100.00
63715;BME280;49858;48.956;9.076;2022-12-07T06:44:06;98791.25;;;3.83;100.00
63715;BME280;49858;48.956;9.076;2022-12-07T06:46:34;98787.81;;;4.00;100.00
63715;BME280;49858;48.956;9.076;2022-12-07T06:49:03;98792.91;;;4.15;100.00
63715;BME280;49858;48.956;9.076;2022-12-07T06:51:33;98789.59;;;4.58;100.00
63715;BME280;49858;48.956;9.076;2022-12-07T06:54:02;98790.47;;;4.14;100.00
63715;BME280;49858;48.956;9.076;2022-12-07T06:56:29;98791.59;;;4.44;100.00
63715;BME280;49858;48.956;9.076;2022-12-07T06:58:57;98791.59;;;4.44;100.00
63715;BME280;49858;48.956;9.076;2022-12-07T07:01:25;98803.75;;;3.48;100.00
63715;BME280;49858;48.956;9.076;2022-12-07T07:03:53;98801.69;;;3.67;100.00
63715;BME280;49858;48.956;9.076;2022-12-07T07:06:21;98794.31;;;4.44;100.00
63715;BME280;49858;48.956;9.076;2022-12-07T07:08:50;98797.22;;;3.49;100.00
63715;BME280;49858;48.956;9.076;2022-12-07T07:11:18;98793.75;;;3.57;100.00
63715;BME280;49858;48.956;9.076;2022-12-07T07:13:46;98804.47;;;2.90;100.00
63715;BME280;49858;48.956;9.076;2022-12-07T07:16:14;98807.41;;;2.52;100.00
63715;BME280;49858;48.956;9.076;2022-12-07T07:18:42;98814.66;;;2.84;100.00
63715;BME280;49858;48.956;9.076;2022-12-07T07:21:11;98811.53;;;2.49;100.00
63715;BME280;49858;48.956;9.076;2022-12-07T07:23:38;98808.41;;;2.56;100.00
63715;BME280;49858;48.956;9.076;2022-12-07T07:26:08;98817.47;;;2.93;100.00
63715;BME280;49858;48.956;9.076;2022-12-07T07:28:35;98814.47;;;3.67;100.00
63715;BME280;49858;48.956;9.076;2022-12-07T07:31:03;98813.59;;;3.35;100.00
63715;BME280;49858;48.956;9.076;2022-12-07T07:33:31;98807.72;;;3.42;100.00
63715;BME280;49858;48.956;9.076;2022-12-07T07:35:59;98814.84;;;3.01;100.00
63715;BME280;49858;48.956;9.076;2022-12-07T07:38:27;98819.56;;;2.96;100.00
63715;BME280;49858;48.956;9.076;2022-12-07T07:40:55;98827.00;;;3.04;100.00
63715;BME280;49858;48.956;9.076;2022-12-07T07:43:24;98829.72;;;3.04;100.00
63715;BME280;49858;48.956;9.076;2022-12-07T07:45:52;98820.56;;;3.00;100.00
63715;BME280;49858;48.956;9.076;2022-12-07T07:48:19;98821.44;;;3.37;100.00
63715;BME280;49858;48.956;9.076;2022-12-07T07:50:49;98819.03;;;3.21;100.00
63715;BME280;49858;48.956;9.076;2022-12-07T07:53:16;98825.06;;;3.32;100.00
63715;BME280;49858;48.956;9.076;2022-12-07T07:55:50;98833.09;;;3.37;100.00
63715;BME280;49858;48.956;9.076;2022-12-07T07:58:19;98822.53;;;3.72;100.00
63715;BME280;49858;48.956;9.076;2022-12-07T08:00:48;98822.63;;;3.44;100.00
63715;BME280;49858;48.956;9.076;2022-12-07T08:03:16;98821.19;;;4.36;100.00
63715;BME280;49858;48.956;9.076;2022-12-07T08:05:44;98823.69;;;4.24;100.00
63715;BME280;49858;48.956;9.076;2022-12-07T08:08:12;98819.97;;;4.43;100.00
63715;BME280;49858;48.956;9.076;2022-12-07T08:10:40;98825.19;;;4.61;100.00
63715;BME280;49858;48.956;9.076;2022-12-07T08:13:08;98819.88;;;4.25;100.00
63715;BME280;49858;48.956;9.076;2022-12-07T08:15:41;98832.25;;;3.87;100.00
63715;BME280;49858;48.956;9.076;2022-12-07T08:18:12;98825.81;;;3.82;100.00
63715;BME280;49858;48.956;9.076;2022-12-07T08:20:40;98817.09;;;3.94;100.00
63715;BME280;49858;48.956;9.076;2022-12-07T08:23:09;98834.06;;;3.91;100.00
63715;BME280;49858;48.956;9.076;2022-12-07T08:25:38;98827.00;;;4.44;100.00
63715;BME280;49858;48.956;9.076;2022-12-07T08:28:06;98825.25;;;3.94;100.00
63715;BME280;49858;48.956;9.076;2022-12-07T08:30:34;98829.34;;;3.83;100.00
63715;BME280;49858;48.956;9.076;2022-12-07T08:33:02;98826.72;;;4.23;100.00
63715;BME280;49858;48.956;9.076;2022-12-07T08:35:32;98827.25;;;4.02;100.00
63715;BME280;49858;48.956;9.076;2022-12-07T08:38:01;98834.78;;;3.83;100.00
63715;BME280;49858;48.956;9.076;2022-12-07T08:40:30;98834.53;;;4.47;100.00
63715;BME280;49858;48.956;9.076;2022-12-07T08:42:57;98837.72;;;4.40;100.00
63715;BME280;49858;48.956;9.076;2022-12-07T08:45:25;98831.66;;;4.43;100.00
63715;BME280;49858;48.956;9.076;2022-12-07T08:47:57;98826.63;;;4.36;100.00
63715;BME280;49858;48.956;9.076;2022-12-07T08:50:27;98825.97;;;4.31;100.00
63715;BME280;49858;48.956;9.076;2022-12-07T08:52:58;98829.75;;;4.83;100.00
63715;BME280;49858;48.956;9.076;2022-12-07T08:55:27;98829.50;;;4.31;100.00
63715;BME280;49858;48.956;9.076;2022-12-07T08:57:57;98831.59;;;4.34;100.00
63715;BME280;49858;48.956;9.076;2022-12-07T09:00:26;98826.16;;;4.34;100.00
63715;BME280;49858;48.956;9.076;2022-12-07T09:02:54;98837.00;;;4.03;100.00
63715;BME280;49858;48.956;9.076;2022-12-07T09:05:22;98825.75;;;3.74;100.00
63715;BME280;49858;48.956;9.076;2022-12-07T09:07:52;98830.13;;;3.61;100.00
63715;BME280;49858;48.956;9.076;2022-12-07T09:10:24;98841.28;;;3.73;100.00
63715;BME280;49858;48.956;9.076;2022-12-07T09:12:52;98831.00;;;3.93;100.00
63715;BME280;49858;48.956;9.076;2022-12-07T09:15:20;98830.63;;;3.63;100.00
63715;BME280;49858;48.956;9.076;2022-12-07T09:17:48;98822.22;;;3.73;100.00
63715;BME280;49858;48.956;9.076;2022-12-07T09:20:16;98828.91;;;3.67;100.00
63715;BME280;49858;48.956;9.076;2022-12-07T09:22:48;98820.44;;;3.91;100.00
63715;BME280;49858;48.956;9.076;2022-12-07T09:25:16;98826.34;;;3.48;100.00
63715;BME280;49858;48.956;9.076;2022-12-07T09:27:45;98830.81;;;3.30;100.00
63715;BME280;49858;48.956;9.076;2022-12-07T09:30:13;98834.22;;;3.36;100.00
63715;BME280;49858;48.956;9.076;2022-12-07T09:32:41;98838.75;;;3.77;100.00
63715;BME280;49858;48.956;9.076;2022-12-07T09:35:09;98834.84;;;3.69;100.00
63715;BME280;49858;48.956;9.076;2022-12-07T09:37:37;98837.06;;;3.67;100.00
63715;BME280;49858;48.956;9.076;2022-12-07T09:40:06;98828.78;;;3.95;100.00
63715;BME280;49858;48.956;9.076;2022-12-07T09:42:36;98834.94;;;3.64;100.00
63715;BME280;49858;48.956;9.076;2022-12-07T09:45:12;98833.28;;;3.54;100.00
63715;BME280;49858;48.956;9.076;2022-12-07T09:47:42;98844.47;;;3.75;100.00
63715;BME280;49858;48.956;9.076;2022-12-07T09:50:13;98836.34;;;3.62;100.00
63715;BME280;49858;48.956;9.076;2022-12-07T09:52:42;98836.81;;;3.77;100.00
63715;BME280;49858;48.956;9.076;2022-12-07T09:55:12;98825.06;;;4.13;100.00
63715;BME280;49858;48.956;9.076;2022-12-07T09:57:41;98830.22;;;3.92;100.00
63715;BME280;49858;48.956;9.076;2022-12-07T10:00:14;98825.81;;;4.05;100.00
63715;BME280;49858;48.956;9.076;2022-12-07T10:02:44;98835.19;;;3.76;100.00
63715;BME280;49858;48.956;9.076;2022-12-07T10:05:14;98828.16;;;3.75;100.00
63715;BME280;49858;48.956;9.076;2022-12-07T10:07:50;98830.13;;;3.61;100.00
63715;BME280;49858;48.956;9.076;2022-12-07T10:10:23;98823.06;;;4.27;100.00
63715;BME280;49858;48.956;9.076;2022-12-07T10:12:58;98812.09;;;4.10;100.00
63715;BME280;49858;48.956;9.076;2022-12-07T10:15:50;98817.84;;;4.40;100.00
63715;BME280;49858;48.956;9.076;2022-12-07T10:18:25;98811.78;;;4.82;100.00
63715;BME280;49858;48.956;9.076;2022-12-07T10:21:15;98806.00;;;4.75;100.00
63715;BME280;49858;48.956;9.076;2022-12-07T10:24:01;98811.06;;;4.59;100.00
63715;BME280;49858;48.956;9.076;2022-12-07T10:26:31;98801.94;;;5.04;100.00
63715;BME280;49858;48.956;9.076;2022-12-07T10:29:02;98810.53;;;4.97;100.00
63715;BME280;49858;48.956;9.076;2022-12-07T10:31:38;98803.00;;;4.15;100.00
63715;BME280;49858;48.956;9.076;2022-12-07T10:34:20;98805.31;;;5.09;100.00
63715;BME280;49858;48.956;9.076;2022-12-07T10:36:48;98799.13;;;4.47;100.00
63715;BME280;49858;48.956;9.076;2022-12-07T10:39:18;98806.13;;;4.61;100.00
63715;BME280;49858;48.956;9.076;2022-12-07T10:41:53;98785.34;;;4.83;100.00
63715;BME280;49858;48.956;9.076;2022-12-07T10:44:24;98795.00;;;4.49;100.00
63715;BME280;49858;48.956;9.076;2022-12-07T10:47:10;98803.44;;;4.39;100.00
63715;BME280;49858;48.956;9.076;2022-12-07T10:50:02;98794.44;;;3.85;100.00
63715;BME280;49858;48.956;9.076;2022-12-07T10:52:45;98807.75;;;3.87;100.00
63715;BME280;49858;48.956;9.076;2022-12-07T10:55:22;98793.28;;;3.77;100.00
63715;BME280;49858;48.956;9.076;2022-12-07T10:57:55;98789.19;;;3.44;100.00
63715;BME280;49858;48.956;9.076;2022-12-07T11:00:30;98791.91;;;3.44;100.00
63715;BME280;49858;48.956;9.076;2022-12-07T11:03:23;98790.34;;;3.51;100.00
63715;BME280;49858;48.956;9.076;2022-12-07T11:05:57;98794.78;;;3.47;100.00
63715;BME280;49858;48.956;9.076;2022-12-07T11:08:38;98791.56;;;3.59;100.00
63715;BME280;49858;48.956;9.076;2022-12-07T11:11:13;98790.31;;;3.65;100.00
63715;BME280;49858;48.956;9.076;2022-12-07T11:13:50;98779.47;;;3.51;100.00
63715;BME280;49858;48.956;9.076;2022-12-07T11:16:24;98775.59;;;3.66;100.00
63715;BME280;49858;48.956;9.076;2022-12-07T11:19:09;98776.75;;;3.51;100.00
63715;BME280;49858;48.956;9.076;2022-12-07T11:21:45;98770.31;;;4.15;100.00
63715;BME280;49858;48.956;9.076;2022-12-07T11:24:17;98772.63;;;3.99;100.00
63715;BME280;49858;48.956;9.076;2022-12-07T11:26:58;98767.13;;;4.21;100.00
63715;BME280;49858;48.956;9.076;2022-12-07T11:29:51;98755.69;;;4.33;100.00
63715;BME280;49858;48.956;9.076;2022-12-07T11:32:39;98759.84;;;4.08;100.00
63715;BME280;49858;48.956;9.076;2022-12-07T11:35:16;98754.84;;;4.32;100.00
63715;BME280;49858;48.956;9.076;2022-12-07T11:37:47;98759.66;;;4.04;100.00
63715;BME280;49858;48.956;9.076;2022-12-07T11:40:18;98757.78;;;3.82;100.00
63715;BME280;49858;48.956;9.076;2022-12-07T11:42:52;98747.97;;;4.04;100.00
63715;BME280;49858;48.956;9.076;2022-12-07T11:45:26;98748.84;;;4.13;100.00
63715;BME280;49858;48.956;9.076;2022-12-07T11:47:59;98742.06;;;4.42;100.00
63715;BME280;49858;48.956;9.076;2022-12-07T11:50:34;98742.97;;;4.68;100.00
63715;BME280;49858;48.956;9.076;2022-12-07T11:53:10;98745.34;;;4.52;100.00
63715;BME280;49858;48.956;9.076;2022-12-07T11:55:45;98742.91;;;4.11;100.00
63715;BME280;49858;48.956;9.076;2022-12-07T11:58:22;98725.97;;;4.14;100.00
63715;BME280;49858;48.956;9.076;2022-12-07T12:01:11;98735.53;;;5.00;100.00
63715;BME280;49858;48.956;9.076;2022-12-07T12:03:44;98725.41;;;4.34;100.00
63715;BME280;49858;48.956;9.076;2022-12-07T12:06:20;98717.03;;;4.31;100.00
63715;BME280;49858;48.956;9.076;2022-12-07T12:08:54;98719.34;;;4.46;100.00
63715;BME280;49858;48.956;9.076;2022-12-07T12:11:50;98722.25;;;4.50;100.00
63715;BME280;49858;48.956;9.076;2022-12-07T12:14:51;98718.94;;;4.61;100.00
63715;BME280;49858;48.956;9.076;2022-12-07T12:17:45;98715.13;;;4.97;100.00
63715;BME280;49858;48.956;9.076;2022-12-07T12:20:22;98712.59;;;5.27;100.00
63715;BME280;49858;48.956;9.076;2022-12-07T12:22:55;98720.91;;;3.99;100.00
63715;BME280;49858;48.956;9.076;2022-12-07T12:25:27;98717.91;;;4.09;100.00
63715;BME280;49858;48.956;9.076;2022-12-07T12:27:58;98711.53;;;3.82;100.00
63715;BME280;49858;48.956;9.076;2022-12-07T12:30:33;98720.63;;;4.09;100.00
63715;BME280;49858;48.956;9.076;2022-12-07T12:33:03;98717.31;;;3.90;100.00
63715;BME280;49858;48.956;9.076;2022-12-07T12:35:33;98711.63;;;4.00;100.00
63715;BME280;49858;48.956;9.076;2022-12-07T12:38:47;98719.38;;;4.55;100.00
63715;BME280;49858;48.956;9.076;2022-12-07T12:50:36;98704.00;;;4.10;100.00
63715;BME280;49858;48.956;9.076;2022-12-07T12:53:14;98711.75;;;3.95;100.00
63715;BME280;49858;48.956;9.076;2022-12-07T12:56:11;98706.91;;;3.83;100.00
63715;BME280;49858;48.956;9.076;2022-12-07T12:58:44;98701.13;;;3.84;100.00
63715;BME280;49858;48.956;9.076;2022-12-07T13:01:33;98702.25;;;3.83;100.00
63715;BME280;49858;48.956;9.076;2022-12-07T13:04:17;98693.53;;;4.04;100.00
63715;BME280;49858;48.956;9.076;2022-12-07T13:06:46;98703.25;;;3.88;100.00
63715;BME280;49858;48.956;9.076;2022-12-07T13:09:20;98693.72;;;4.07;100.00
63715;BME280;49858;48.956;9.076;2022-12-07T13:11:54;98696.00;;;4.14;100.00
63715;BME280;49858;48.956;9.076;2022-12-07T13:14:53;98683.22;;;3.83;100.00
63715;BME280;49858;48.956;9.076;2022-12-07T13:18:00;98680.47;;;4.15;100.00
63715;BME280;49858;48.956;9.076;2022-12-07T13:20:44;98675.13;;;4.49;100.00
63715;BME280;49858;48.956;9.076;2022-12-07T13:23:14;98677.13;;;4.83;100.00
63715;BME280;49858;48.956;9.076;2022-12-07T13:25:49;98681.00;;;5.00;100.00
63715;BME280;49858;48.956;9.076;2022-12-07T13:28:19;98670.91;;;5.18;100.00
63715;BME280;49858;48.956;9.076;2022-12-07T13:31:00;98678.84;;;4.53;100.00
63715;BME280;49858;48.956;9.076;2022-12-07T13:33:34;98671.78;;;4.61;100.00
63715;BME280;49858;48.956;9.076;2022-12-07T13:36:03;98672.16;;;4.20;100.00
63715;BME280;49858;48.956;9.076;2022-12-07T13:38:33;98673.69;;;4.43;100.00